Edgar Springs, MO (65462)

3:57 AM CDT on July 27, 2016 (GMT -0500)
Pulaski County MO OEM2 | | Change Station

Elev 1010 ft 37.74 °N, 92.12 °W | Updated 3 seconds ago

Fog
Fog
72.5 °F
Feels Like 72 °F
N
0.0
Wind Variable Wind from North
Gusts 0.0 mph

Today
High -- | Low -- °F
--% Chance of Precip.
Yesterday
High -- | Low -- °F
Precip. -- in
Pressure 29.99 in
Visibility 0.5 miles
Clouds Few 4000 ft
Heat Index 72 °F
Dew Point 67 °F
Humidity 84%
Rainfall 0.00 in
Snow Depth Not available.
6:07 AM 8:20 PM
Last Quarter, 45% visible
SPECI KTBN 270843Z AUTO 16004KT 1/2SM R14/3000FT FG FEW040 22/22 A2999 RMK AO2 VIS 1/2V1 1/2
Pressure 29.99 in
Visibility 0.5 miles
Clouds Few 4000 ft
Heat Index 72 °F
Dew Point 67 °F
Humidity 84%
Rainfall 0.00 in
Snow Depth Not available.
6:07 AM 8:20 PM
Last Quarter, 45% visible
SPECI KTBN 270843Z AUTO 16004KT 1/2SM R14/3000FT FG FEW040 22/22 A2999 RMK AO2 VIS 1/2V1 1/2

10-Day Weather Forecast

Almanac

Astronomy

Jul. 27, 2016 Rise Set
Actual Time
Civil Twilight
Nautical Twilight
Astronomical Twilight
Moon
Length of Visible Light
Length of Day
Tomorrow will be .
, % of the Moon is Illuminated

Today's Extremes

State Highs State Lows

Community

WunderPhotos

Upload Photos

1,927,818 photos uploaded!

WunderBlog® & News

Nearby

Air Quality

  Air Quality AQ Index Pollutant
Not available.

Snow Depth

Station Depth Elevation

Earthquake Activity

City Distance Mag. Time & Date
Minimum magnitude displayed is 2.5.

Coastal Water Temperatures

Place Temperature

Stations

Nearby Weather Stations

Station Location Temp. Windchill Dew Point Humidity Wind Precip. Elev Updated Type
                   

Watches & Warnings

There are currently no watches in effect.